Time;durP1;ratioP1;P1;durP2;ratioP2;P2;SDS_P1;SDS_P2;PMS_P1;PMS_P2;Temp;Humidity;BMP_temperature;BMP_pressure;BME280_temperature;BME280_humidity;BME280_pressure;Samples;Min_cycle;Max_cycle;Signal;HPM_P1;HPM_P2
2023/10/17 00:01:13;;;;;;;16.48;9.65;;;7.80;99.90;;;8.15;71.04;101015.25;5019704;28;20464;-84
2023/10/17 00:03:41;;;;;;;15.00;9.80;;;7.80;99.90;;;8.13;71.24;101018.09;5018098;28;20041;-83
2023/10/17 00:06:13;;;;;;;15.80;9.65;;;7.80;99.90;;;8.11;71.64;101020.13;5002769;28;20054;-83
2023/10/17 00:08:42;;;;;;;16.63;9.45;;;7.80;99.90;;;8.11;71.65;101016.63;5020264;28;20054;-84
2023/10/17 00:11:15;;;;;;;14.07;9.00;;;7.90;99.90;;;8.10;71.20;101015.81;5001571;28;20054;-83
2023/10/17 00:13:59;;;;;;;16.60;9.68;;;7.80;99.90;;;8.09;71.44;101022.09;5001338;28;20046;-84
2023/10/17 00:16:29;;;;;;;15.30;8.90;;;7.80;99.90;;;8.08;71.50;101023.13;4985395;28;20053;-83
2023/10/17 00:19:04;;;;;;;14.93;8.80;;;7.80;99.90;;;8.08;71.59;101023.13;5003927;28;20049;-83
2023/10/17 00:21:32;;;;;;;15.88;9.82;;;7.80;99.90;;;8.09;71.74;101016.78;4990403;28;20060;-83
2023/10/17 00:24:04;;;;;;;13.52;9.18;;;7.80;99.90;;;8.09;71.66;101021.28;5023467;28;20100;-83
2023/10/17 00:26:32;;;;;;;13.95;8.95;;;7.80;99.90;;;8.06;71.82;101016.34;5017668;28;20041;-83
2023/10/17 00:29:05;;;;;;;17.80;8.90;;;7.70;99.90;;;8.04;72.01;101005.06;5004873;28;20084;-83
2023/10/17 00:31:33;;;;;;;14.25;8.52;;;7.70;99.90;;;8.04;72.14;101005.88;5023702;28;20049;-84
2023/10/17 00:34:12;;;;;;;13.95;8.93;;;7.70;99.90;;;8.06;71.93;101006.56;5004770;28;20046;-83
2023/10/17 00:36:47;;;;;;;12.57;8.70;;;7.70;99.90;;;8.05;71.88;100994.25;5001581;28;20049;-83
2023/10/17 00:39:23;;;;;;;15.10;8.50;;;7.70;99.90;;;8.04;71.73;100995.25;5042469;28;20124;-83
2023/10/17 00:41:52;;;;;;;13.80;8.98;;;7.70;99.90;;;8.04;71.77;100994.44;5005633;28;20046;-83
2023/10/17 00:44:30;;;;;;;13.23;7.97;;;7.70;99.90;;;8.02;71.94;100994.63;5023701;28;20050;-84
2023/10/17 00:47:00;;;;;;;12.52;8.73;;;7.70;99.90;;;8.02;72.05;100993.81;5007565;28;20103;-83
2023/10/17 00:49:30;;;;;;;13.50;8.43;;;7.70;99.90;;;8.01;72.05;100995.66;5024906;28;20042;-83
2023/10/17 00:52:04;;;;;;;12.98;8.80;;;7.70;99.90;;;8.03;72.01;100996.28;5043150;28;20439;-85
2023/10/17 00:54:34;;;;;;;14.27;8.38;;;7.70;99.90;;;8.03;71.95;100993.63;5041158;28;20068;-85
2023/10/17 00:57:05;;;;;;;16.50;8.32;;;7.70;99.90;;;8.04;72.07;100997.09;5038024;28;20157;-84
2023/10/17 00:59:35;;;;;;;13.80;8.80;;;7.70;99.90;;;8.03;71.93;100985.66;5023564;28;20113;-85
2023/10/17 01:02:07;;;;;;;14.45;8.73;;;7.70;99.90;;;8.03;71.88;100983.00;5007535;28;20041;-84
2023/10/17 01:04:40;;;;;;;14.13;8.27;;;7.70;99.90;;;8.03;72.00;100982.19;5023428;28;20045;-84
2023/10/17 01:07:10;;;;;;;14.05;8.35;;;7.70;99.90;;;8.00;72.04;100975.38;5040740;28;20045;-84
2023/10/17 01:09:38;;;;;;;13.00;8.00;;;7.70;99.90;;;8.00;72.16;100991.31;5023985;28;20095;-84
2023/10/17 01:12:10;;;;;;;12.27;8.05;;;7.70;99.90;;;8.00;72.33;100988.66;5040991;28;20042;-84
2023/10/17 01:14:40;;;;;;;12.43;8.00;;;7.70;99.90;;;8.00;72.14;100996.63;5002957;28;20092;-85
2023/10/17 01:17:08;;;;;;;11.32;7.68;;;7.70;99.90;;;7.99;72.13;100992.34;5022382;28;20093;-84
2023/10/17 01:19:35;;;;;;;12.90;7.82;;;7.70;99.90;;;7.99;71.82;100995.00;5019836;28;20110;-84
2023/10/17 01:22:03;;;;;;;12.10;7.60;;;7.70;99.90;;;7.98;71.80;100985.38;5004123;28;20141;-85
2023/10/17 01:24:34;;;;;;;11.82;8.15;;;7.80;99.90;;;7.97;71.88;100984.56;5003989;28;20069;-84
2023/10/17 01:27:06;;;;;;;12.85;8.10;;;7.70;99.90;;;7.99;72.17;100984.34;5032314;28;20060;-84
2023/10/17 01:29:34;;;;;;;10.27;7.10;;;7.70;99.90;;;7.99;71.94;100981.72;5022686;28;20046;-84
2023/10/17 01:32:02;;;;;;;11.85;7.75;;;7.70;99.90;;;7.96;72.22;100982.91;5034282;28;20558;-84
2023/10/17 01:34:30;;;;;;;12.35;8.15;;;7.60;99.90;;;7.96;72.16;100984.75;5039859;28;20100;-84
2023/10/17 01:36:58;;;;;;;12.48;7.72;;;7.70;99.90;;;7.94;72.39;100990.22;5040352;28;20053;-84
2023/10/17 01:39:27;;;;;;;10.77;7.18;;;7.60;99.90;;;7.95;72.32;100981.28;5039677;28;20049;-85
2023/10/17 01:41:59;;;;;;;12.00;7.47;;;7.60;99.90;;;7.94;72.36;100979.59;5040596;28;20141;-84
2023/10/17 01:44:26;;;;;;;11.60;7.88;;;7.70;99.90;;;7.95;72.38;100977.75;5040566;28;20080;-84
2023/10/17 01:46:54;;;;;;;11.18;7.65;;;7.70;99.90;;;7.96;72.14;100976.78;5030837;28;20125;-84
2023/10/17 01:49:25;;;;;;;10.90;7.10;;;7.70;99.90;;;7.98;72.26;100974.75;5020161;28;20111;-84
2023/10/17 01:51:57;;;;;;;10.85;7.28;;;7.60;99.90;;;7.96;72.38;100966.97;4973081;28;20144;-84
2023/10/17 01:54:29;;;;;;;10.75;6.72;;;7.70;99.90;;;7.96;72.41;100968.81;5022561;28;20125;-84
2023/10/17 01:57:06;;;;;;;11.02;7.43;;;7.70;99.90;;;7.96;72.58;100961.66;4988619;28;20054;-84
2023/10/17 01:59:34;;;;;;;13.63;7.30;;;7.70;99.90;;;7.98;72.32;100954.31;5024738;28;20449;-84
2023/10/17 02:02:03;;;;;;;11.88;7.63;;;7.70;99.90;;;8.00;72.47;100954.97;5015018;28;20140;-84
2023/10/17 02:04:34;;;;;;;11.40;7.63;;;7.70;99.90;;;8.01;72.11;100963.78;5010373;28;20041;-85
2023/10/17 02:07:04;;;;;;;;;;;7.70;99.90;;;8.00;72.38;100957.63;5042237;28;20037;-85
2023/10/17 02:09:48;;;;;;;12.95;7.10;;;7.70;99.90;;;7.99;72.60;100963.13;5024235;28;20292;-84
2023/10/17 02:12:19;;;;;;;13.77;7.85;;;7.70;99.90;;;7.95;72.79;100960.03;5023741;28;20045;-84
2023/10/17 02:14:47;;;;;;;11.07;6.93;;;7.60;99.90;;;7.93;72.91;100958.53;5024247;28;20045;-84
2023/10/17 02:17:18;;;;;;;12.05;7.07;;;7.60;99.90;;;7.93;72.79;100958.53;4968226;28;20061;-84
2023/10/17 02:19:47;;;;;;;12.27;7.47;;;7.60;99.90;;;7.92;72.99;100964.84;4987780;28;20046;-85
2023/10/17 02:22:16;;;;;;;10.68;6.85;;;7.60;99.90;;;7.91;73.03;100964.03;5020510;28;20054;-85
2023/10/17 02:24:44;;;;;;;14.05;6.88;;;7.60;99.90;;;7.92;73.01;100962.22;4988728;28;20046;-85
2023/10/17 02:27:13;;;;;;;10.10;7.13;;;7.60;99.90;;;7.91;72.77;100968.53;5005319;28;20052;-84
2023/10/17 02:29:46;;;;;;;9.63;6.45;;;7.60;99.90;;;7.90;72.75;100966.84;5020034;28;20050;-85
2023/10/17 02:32:13;;;;;;;11.70;7.60;;;7.60;99.90;;;7.91;72.68;100969.34;5007388;28;20144;-84
2023/10/17 02:34:43;;;;;;;15.55;7.32;;;7.70;99.90;;;7.91;72.47;100960.56;5032601;28;20042;-85
2023/10/17 02:37:11;;;;;;;11.05;7.20;;;7.60;99.90;;;7.90;72.46;100958.88;5022158;28;20069;-85
2023/10/17 02:39:39;;;;;;;12.65;7.60;;;7.60;99.90;;;7.91;72.36;100955.25;4988281;28;20042;-85
2023/10/17 02:42:10;;;;;;;10.93;7.80;;;7.60;99.90;;;7.92;72.58;100955.06;4989264;28;20065;-85
2023/10/17 02:44:46;;;;;;;10.18;6.80;;;7.60;99.90;;;7.94;72.51;100953.03;4988482;28;20528;-85
2023/10/17 02:47:15;;;;;;;12.07;7.15;;;7.60;99.90;;;7.91;72.22;100955.25;5004749;28;20050;-85
2023/10/17 02:49:45;;;;;;;11.25;7.20;;;7.60;99.90;;;7.88;72.46;100956.44;5005663;28;20057;-84
2023/10/17 02:52:17;;;;;;;12.48;6.55;;;7.60;99.90;;;7.89;72.18;100954.59;5021882;28;20042;-85
2023/10/17 02:54:55;;;;;;;13.50;7.50;;;7.60;99.90;;;7.86;72.57;100945.16;5021480;28;20497;-85
2023/10/17 02:57:24;;;;;;;12.25;7.65;;;7.60;99.90;;;7.84;72.31;100941.03;5021358;28;20052;-85
2023/10/17 02:59:56;;;;;;;11.18;7.05;;;7.50;99.90;;;7.84;72.31;100939.19;5022493;28;20495;-85
2023/10/17 03:02:36;;;;;;;11.15;6.80;;;7.50;99.90;;;7.85;72.25;100945.34;5040684;28;20060;-85
2023/10/17 03:05:11;;;;;;;11.90;7.55;;;7.50;99.90;;;7.86;72.36;100945.16;5008305;28;20052;-85
2023/10/17 03:07:42;;;;;;;14.20;6.97;;;7.50;99.90;;;7.87;72.15;100938.03;5042719;28;20420;-84
2023/10/17 03:10:20;;;;;;;12.23;6.72;;;7.50;99.90;;;7.83;72.15;100945.53;5009488;28;20516;-85
2023/10/17 03:12:54;;;;;;;10.55;6.97;;;7.50;99.90;;;7.83;72.16;100942.03;5026604;28;20091;-85
2023/10/17 03:15:29;;;;;;;10.63;6.90;;;7.50;99.90;;;7.84;72.45;100938.38;5009004;28;20053;-85
2023/10/17 03:18:00;;;;;;;11.35;6.88;;;7.50;99.90;;;7.86;72.31;100945.16;5023555;28;20080;-85
2023/10/17 03:20:40;;;;;;;13.18;7.10;;;7.50;99.90;;;7.89;72.70;100930.69;5022661;28;20046;-85
2023/10/17 03:23:08;;;;;;;15.15;7.70;;;7.60;99.90;;;7.93;72.75;100934.63;5008731;28;20052;-85
2023/10/17 03:25:38;;;;;;;14.60;7.38;;;7.60;99.90;;;7.96;72.94;100932.44;5024960;28;20464;-85
2023/10/17 03:28:08;;;;;;;11.32;7.18;;;7.60;99.90;;;7.99;73.06;100932.06;5025014;28;20049;-85
2023/10/17 03:30:36;;;;;;;17.70;7.20;;;7.70;99.90;;;8.02;72.60;100933.53;5040012;28;20034;-84
2023/10/17 03:33:15;;;;;;;12.13;7.40;;;7.60;99.90;;;8.03;72.59;100931.72;5025220;28;20424;-85
2023/10/17 03:36:04;;;;;;;11.02;7.43;;;7.60;99.90;;;8.01;72.66;100921.28;5022231;28;20056;-85
2023/10/17 03:38:36;;;;;;;10.75;7.25;;;7.60;99.90;;;7.99;73.01;100926.75;5023426;28;20116;-85
2023/10/17 03:41:15;;;;;;;13.30;7.40;;;7.60;99.90;;;7.98;73.21;100922.44;5038541;28;20061;-86
2023/10/17 03:43:50;;;;;;;12.85;7.63;;;7.60;99.90;;;8.01;73.00;100926.59;5034895;28;20045;-86
2023/10/17 03:46:18;;;;;;;11.15;6.78;;;7.60;99.90;;;8.01;72.91;100926.59;5034108;28;20069;-86
2023/10/17 03:48:57;;;;;;;10.40;6.95;;;7.60;99.90;;;7.99;73.00;100933.91;5034986;28;20045;-86
2023/10/17 03:51:26;;;;;;;12.00;7.13;;;7.60;99.90;;;7.97;72.96;100934.09;4997403;28;20515;-86
2023/10/17 03:54:06;;;;;;;9.90;7.00;;;7.60;99.90;;;7.93;72.89;100930.16;5001961;28;20137;-85
2023/10/17 03:56:45;;;;;;;13.38;7.78;;;7.60;99.90;;;7.93;73.19;100935.47;5009819;28;20085;-85
2023/10/17 03:59:30;;;;;;;11.23;7.35;;;7.60;99.90;;;7.92;73.14;100930.34;5034250;28;20061;-85
2023/10/17 04:02:00;;;;;;;11.75;6.68;;;7.60;99.90;;;7.92;73.13;100944.44;5045016;28;20504;-85
2023/10/17 04:04:37;;;;;;;11.05;7.35;;;7.60;99.90;;;7.91;73.23;100939.31;5027264;28;20080;-85
2023/10/17 04:07:06;;;;;;;12.05;6.70;;;7.60;99.90;;;7.92;73.08;100939.13;5044006;28;20125;-85
2023/10/17 04:09:41;;;;;;;11.77;6.90;;;7.60;99.90;;;7.93;73.28;100942.59;5012109;28;20046;-85
2023/10/17 04:12:20;;;;;;;12.43;6.80;;;7.60;99.90;;;7.96;73.05;100947.56;5047565;28;20049;-85
2023/10/17 04:14:54;;;;;;;15.60;7.13;;;7.60;99.90;;;7.94;73.15;100947.72;5035951;28;20051;-85
2023/10/17 04:17:27;;;;;;;13.27;6.30;;;7.60;99.90;;;7.92;73.09;100947.09;5056192;28;20053;-84
2023/10/17 04:20:09;;;;;;;11.32;6.45;;;7.60;99.90;;;7.92;73.33;100954.25;5057212;28;20046;-85
2023/10/17 04:22:38;;;;;;;13.95;7.70;;;7.60;99.90;;;7.93;73.31;100955.88;5058564;28;20053;-84
2023/10/17 04:25:19;;;;;;;11.57;6.90;;;7.60;99.90;;;7.94;73.43;100957.53;5055122;28;20045;-85
2023/10/17 04:27:51;;;;;;;11.32;7.07;;;7.60;99.90;;;7.94;73.60;100961.00;5002236;28;20046;-85
2023/10/17 04:30:22;;;;;;;11.82;7.30;;;7.60;99.90;;;7.97;73.45;100959.81;5011713;28;20117;-85
2023/10/17 04:32:52;;;;;;;13.75;7.32;;;7.60;99.90;;;7.97;73.31;100968.63;5012645;28;20050;-85
2023/10/17 04:35:21;;;;;;;13.07;6.78;;;7.60;99.90;;;7.96;73.52;100959.00;5020029;28;20074;-85
2023/10/17 04:38:09;;;;;;;11.82;7.43;;;7.60;99.90;;;7.95;73.69;100949.41;5037312;28;20042;-84
2023/10/17 04:40:42;;;;;;;10.77;6.93;;;7.60;99.90;;;7.97;73.95;100947.38;5034076;28;20069;-84
2023/10/17 04:45:57;;;;;;;14.07;7.55;;;7.70;99.90;;;7.98;73.76;100949.00;5012314;28;20072;-85
2023/10/17 04:48:32;;;;;;;12.13;7.43;;;7.80;99.90;;;8.00;73.89;100947.00;5023668;28;20145;-85
2023/10/17 04:51:11;;;;;;;14.77;8.02;;;7.80;99.90;;;8.05;73.81;100946.44;4982324;28;20519;-87
2023/10/17 04:53:47;;;;;;;14.27;8.25;;;7.80;99.90;;;8.07;73.86;100946.28;5022763;28;20064;-86
2023/10/17 04:56:22;;;;;;;17.92;9.32;;;7.80;99.90;;;8.09;73.80;100945.06;5020058;28;20052;-85
2023/10/17 04:58:53;;;;;;;13.30;8.80;;;7.80;99.90;;;8.12;73.82;100947.38;5040966;28;20112;-84
2023/10/17 05:04:21;;;;;;;15.75;8.57;;;7.80;99.90;;;8.12;73.82;100941.25;5015587;28;20046;-84
2023/10/17 06:18:51;;;;;;;17.80;9.68;;;7.80;99.90;;;8.07;74.33;100975.50;5037486;28;20045;-85
2023/10/17 06:21:19;;;;;;;;;;;7.80;99.90;;;8.07;74.03;100972.84;5018693;28;20069;-86
2023/10/17 06:26:53;;;;;;;12.68;8.07;;;7.80;99.90;;;8.05;74.31;100975.66;5036793;28;20064;-86
2023/10/17 06:32:15;;;;;;;13.48;8.23;;;7.80;99.90;;;8.08;74.37;100977.97;5022433;28;20052;-85
2023/10/17 06:34:44;;;;;;;13.43;8.52;;;7.80;99.90;;;8.10;74.49;100981.28;5017357;28;20053;-86
2023/10/17 06:37:19;;;;;;;12.45;8.63;;;7.80;99.90;;;8.09;74.55;100982.25;5016652;28;20074;-86
2023/10/17 06:39:47;;;;;;;14.45;8.27;;;7.80;99.90;;;8.12;74.42;100979.25;5016993;28;20046;-86
2023/10/17 06:42:14;;;;;;;16.00;9.00;;;7.90;99.90;;;8.13;74.49;100980.91;4996855;28;20054;-86
2023/10/17 06:44:53;;;;;;;15.27;8.57;;;7.90;99.90;;;8.16;74.46;100977.06;5016791;28;20049;-85
2023/10/17 06:47:23;;;;;;;15.02;8.77;;;7.90;99.90;;;8.18;74.34;100981.16;5014462;28;20056;-86
2023/10/17 06:52:54;;;;;;;16.33;8.45;;;7.90;99.90;;;8.18;74.42;100975.84;5008106;28;20050;-86
2023/10/17 06:55:28;;;;;;;14.13;8.60;;;7.90;99.90;;;8.18;74.48;100970.53;5035789;28;20067;-87
2023/10/17 06:58:08;;;;;;;15.25;8.80;;;7.90;99.90;;;8.20;74.59;100979.19;5021132;28;20103;-86
2023/10/17 07:00:51;;;;;;;17.67;9.30;;;7.90;99.90;;;8.23;74.31;100981.44;5038503;28;20091;-87
2023/10/17 07:03:24;;;;;;;16.35;8.13;;;8.00;99.90;;;8.24;74.22;100979.59;5040938;28;20091;-86
2023/10/17 07:05:54;;;;;;;16.13;9.32;;;8.00;99.90;;;8.27;74.23;100985.38;5044510;28;20046;-86
2023/10/17 07:08:22;;;;;;;13.55;7.80;;;8.00;99.90;;;8.29;74.37;100987.84;5020087;28;20072;-86
2023/10/17 07:11:02;;;;;;;15.23;8.35;;;8.10;99.90;;;8.31;74.43;100982.38;5020674;28;20045;-86
2023/10/17 07:14:10;;;;;;;14.15;8.73;;;8.10;99.90;;;8.34;74.20;100977.50;4993625;28;20041;-86
2023/10/17 07:16:45;;;;;;;13.25;8.35;;;8.10;99.90;;;8.37;74.42;100971.84;5035673;28;20527;-87
2023/10/17 07:22:07;;;;;;;16.83;9.10;;;8.20;99.90;;;8.39;74.22;100972.50;5011061;28;20056;-86
2023/10/17 07:24:36;;;;;;;15.30;9.00;;;8.20;99.90;;;8.39;74.38;100971.66;5018662;28;20049;-86
2023/10/17 07:27:11;;;;;;;15.95;9.05;;;8.10;99.90;;;8.40;74.08;100962.72;5036584;28;20045;-86
2023/10/17 07:29:45;;;;;;;17.33;8.93;;;8.20;99.90;;;8.40;74.28;100962.72;5007303;28;20056;-86
2023/10/17 07:32:17;;;;;;;16.90;9.13;;;8.20;99.90;;;8.38;74.11;100967.38;5017356;28;20104;-86
2023/10/17 07:34:45;;;;;;;13.52;9.20;;;8.10;99.90;;;8.40;74.31;100958.22;5020289;28;20046;-86
2023/10/17 07:37:22;;;;;;;13.70;9.07;;;8.10;99.90;;;8.46;74.33;100956.66;5018703;28;20053;-86
2023/10/17 07:42:41;;;;;;;14.23;9.45;;;8.30;99.90;;;8.47;74.47;100959.09;5019254;28;20501;-86
2023/10/17 07:45:15;;;;;;;17.33;9.27;;;8.30;99.90;;;8.47;74.20;100952.97;4984223;28;20049;-86
2023/10/17 07:47:51;;;;;;;14.85;9.52;;;8.30;99.90;;;8.46;74.43;100946.00;5019744;28;20501;-86
2023/10/17 07:50:20;;;;;;;13.40;9.38;;;8.30;99.90;;;8.46;74.17;100956.66;5002474;28;20424;-86
2023/10/17 07:52:51;;;;;;;15.98;9.40;;;8.30;99.90;;;8.46;74.35;100954.81;5019610;28;20045;-86
2023/10/17 07:55:22;;;;;;;15.82;9.52;;;8.30;99.90;;;8.47;74.65;100966.25;5015598;28;20042;-86
2023/10/17 07:57:52;;;;;;;16.15;9.70;;;8.30;99.90;;;8.49;74.62;100965.09;4999937;28;20052;-86
2023/10/17 08:00:27;;;;;;;17.48;9.38;;;8.30;99.90;;;8.53;74.61;100973.50;5017287;28;20112;-86
2023/10/17 08:03:03;;;;;;;15.98;9.38;;;8.30;99.90;;;8.57;74.78;100973.94;5007941;28;20112;-86
2023/10/17 08:05:44;;;;;;;16.02;9.98;;;8.40;99.90;;;8.55;74.50;100963.50;5025387;28;20525;-86
2023/10/17 08:08:14;;;;;;;14.32;8.95;;;8.40;99.90;;;8.59;74.68;100969.25;4984248;28;20136;-86
2023/10/17 08:10:45;;;;;;;15.77;9.77;;;8.40;99.90;;;8.60;74.84;100971.75;5015356;28;20069;-86
2023/10/17 08:13:14;;;;;;;16.00;9.82;;;8.40;99.90;;;8.60;74.68;100971.75;5017262;28;20568;-86
2023/10/17 08:15:46;;;;;;;13.77;9.88;;;8.40;99.90;;;8.61;74.58;100969.91;4998722;28;20053;-86
2023/10/17 08:18:15;;;;;;;12.45;9.15;;;8.40;99.90;;;8.63;74.73;100970.53;4997562;28;20050;-86
2023/10/17 08:21:07;;;;;;;16.85;9.95;;;8.40;99.90;;;8.65;74.68;100957.91;4982233;28;20069;-86
2023/10/17 08:23:34;;;;;;;18.65;10.25;;;8.50;99.90;;;8.64;74.52;100959.75;5014956;28;20050;-85
2023/10/17 08:26:10;;;;;;;20.75;10.40;;;8.50;99.90;;;8.66;74.60;100960.38;4996898;28;20541;-86
2023/10/17 08:28:46;;;;;;;18.45;10.75;;;8.50;99.90;;;8.70;74.55;100961.66;5014023;28;20067;-86
2023/10/17 08:31:22;;;;;;;15.30;9.48;;;8.50;99.90;;;8.70;74.60;100958.97;5013115;28;20049;-85
2023/10/17 08:34:09;;;;;;;19.65;10.27;;;8.50;99.90;;;8.75;74.65;100959.25;5013646;28;20054;-86
2023/10/17 08:36:42;;;;;;;17.85;10.60;;;8.60;99.90;;;8.79;74.62;100950.91;5012301;28;20057;-85
2023/10/17 08:41:57;;;;;;;16.33;10.50;;;8.60;99.90;;;8.83;74.73;100936.19;5017649;28;20617;-85
2023/10/17 08:44:29;;;;;;;18.35;10.48;;;8.60;99.90;;;8.87;75.14;100946.28;4987686;28;20053;-84
2023/10/17 08:46:57;;;;;;;17.17;10.27;;;8.70;99.90;;;8.90;74.82;100943.25;5016861;28;20046;-86
2023/10/17 08:49:28;;;;;;;16.55;10.93;;;8.70;99.90;;;8.95;74.72;100945.34;5024789;28;20523;-86
2023/10/17 08:51:57;;;;;;;19.20;11.30;;;8.80;99.90;;;8.98;75.17;100945.81;5023087;28;20112;-85
2023/10/17 08:54:28;;;;;;;17.92;11.40;;;8.80;99.90;;;9.00;75.31;100943.75;5044648;28;20080;-85
2023/10/17 08:56:56;;;;;;;16.27;10.27;;;8.90;99.90;;;9.05;75.51;100945.03;5009996;28;20401;-85
2023/10/17 08:59:51;;;;;;;17.08;10.73;;;8.90;99.90;;;9.07;75.24;100943.81;5025141;28;20118;-85
2023/10/17 09:02:28;;;;;;;15.50;10.70;;;9.00;99.90;;;9.12;74.97;100946.72;5030301;28;20072;-85
2023/10/17 09:05:05;;;;;;;16.33;10.70;;;9.00;99.90;;;9.10;74.63;100956.75;5011358;28;20042;-85
2023/10/17 09:07:31;;;;;;;20.48;10.38;;;9.10;99.90;;;9.12;74.74;100952.06;5041815;28;20049;-85
2023/10/17 09:10:04;;;;;;;17.10;9.88;;;9.10;99.90;;;9.12;74.19;100944.06;4992127;28;20552;-85
2023/10/17 09:12:42;;;;;;;18.42;10.60;;;9.10;99.90;;;9.13;74.63;100940.41;4993141;28;20466;-85
2023/10/17 09:15:27;;;;;;;18.58;10.88;;;9.10;99.90;;;9.16;74.64;100941.88;5018247;28;20045;-85
2023/10/17 09:18:07;;;;;;;14.80;9.35;;;9.10;99.90;;;9.17;74.69;100949.66;5027878;28;20049;-85
2023/10/17 09:20:40;;;;;;;17.70;9.85;;;9.20;99.90;;;9.20;74.46;100948.47;5046203;28;20072;-85
2023/10/17 09:23:24;;;;;;;17.08;9.57;;;9.20;99.90;;;9.20;74.14;100949.28;5045644;28;20041;-85
2023/10/17 09:25:57;;;;;;;16.63;9.65;;;9.20;99.90;;;9.23;74.37;100946.25;5008681;28;20042;-84
2023/10/17 09:28:25;;;;;;;18.40;9.00;;;9.30;99.90;;;9.27;74.26;100939.53;5048681;28;20057;-84
2023/10/17 09:31:06;;;;;;;15.30;9.07;;;9.30;99.90;;;9.29;74.02;100940.16;5048321;28;20088;-84
2023/10/17 09:33:37;;;;;;;17.48;9.82;;;9.30;99.90;;;9.34;73.48;100936.91;5047196;28;20072;-84
2023/10/17 09:36:06;;;;;;;13.35;8.63;;;9.40;99.90;;;9.38;73.56;100935.53;5046401;28;20079;-84
2023/10/17 09:38:35;;;;;;;12.52;8.25;;;9.40;99.90;;;9.44;73.48;100925.94;5046658;28;20053;-84
2023/10/17 09:41:05;;;;;;;14.77;8.25;;;9.50;99.90;;;9.46;73.40;100926.56;5027612;28;20517;-84
2023/10/17 09:43:32;;;;;;;13.65;7.70;;;9.50;99.90;;;9.50;73.29;100911.84;4995938;28;20051;-84
2023/10/17 09:46:04;;;;;;;14.68;8.02;;;9.60;99.90;;;9.54;73.24;100918.44;5029978;28;20042;-84
2023/10/17 09:48:35;;;;;;;12.30;7.18;;;9.60;99.90;;;9.54;72.50;100919.25;5028875;28;20076;-84
2023/10/17 09:51:06;;;;;;;13.80;7.18;;;9.40;99.90;;;9.57;72.22;100928.72;5027717;28;20049;-84
2023/10/17 09:53:35;;;;;;;9.18;5.70;;;9.60;99.90;;;9.57;71.26;100918.06;5028444;28;20073;-84
2023/10/17 09:56:12;;;;;;;12.43;6.05;;;9.70;99.90;;;9.64;71.55;100916.25;5045956;28;20041;-84
2023/10/17 09:58:45;;;;;;;10.05;5.15;;;9.70;99.90;;;9.68;71.46;100911.38;5010303;28;20049;-84
2023/10/17 10:01:17;;;;;;;9.82;5.68;;;9.80;99.90;;;9.69;70.23;100916.50;5046385;28;20041;-84
2023/10/17 10:03:51;;;;;;;9.15;4.45;;;9.80;99.90;;;9.71;69.95;100913.63;5052999;28;20474;-84
2023/10/17 10:06:27;;;;;;;8.00;5.00;;;9.90;99.90;;;9.75;70.16;100910.38;5030922;28;20056;-84
2023/10/17 10:08:56;;;;;;;11.57;4.75;;;9.90;99.90;;;9.82;70.18;100914.97;5026683;28;20046;-84
2023/10/17 10:11:55;;;;;;;10.43;4.85;;;10.00;99.90;;;9.89;69.64;100918.47;5008679;28;20394;-84
2023/10/17 10:14:42;;;;;;;8.27;4.20;;;10.00;99.90;;;9.87;68.04;100917.88;5008262;28;20607;-84
2023/10/17 10:17:11;;;;;;;10.10;3.90;;;10.00;99.90;;;9.86;66.97;100919.72;5044574;28;20072;-84
2023/10/17 10:20:13;;;;;;;11.50;4.63;;;10.10;99.90;;;9.89;67.62;100913.97;5028468;28;20064;-84
2023/10/17 10:22:52;;;;;;;7.80;3.45;;;10.10;99.90;;;9.95;67.83;100909.69;5043717;28;20073;-84
2023/10/17 10:25:22;;;;;;;9.32;3.80;;;10.10;99.90;;;9.98;67.68;100914.66;5029107;28;20037;-84
2023/10/17 10:28:10;;;;;;;6.63;3.80;;;10.10;99.90;;;10.01;67.52;100914.25;5045727;28;20049;-84
2023/10/17 10:30:43;;;;;;;8.45;3.55;;;10.20;99.90;;;10.00;65.86;100910.78;5044094;28;20037;-84
2023/10/17 10:33:13;;;;;;;7.55;3.63;;;10.20;99.90;;;10.02;66.33;100915.91;5027964;28;20053;-84
2023/10/17 10:35:47;;;;;;;6.72;2.97;;;10.20;99.90;;;10.05;65.63;100905.69;5023126;28;20053;-84
2023/10/17 10:38:17;;;;;;;5.18;2.55;;;10.20;99.90;;;10.09;64.57;100900.75;5025456;28;20049;-84
2023/10/17 10:40:44;;;;;;;8.98;2.70;;;10.20;99.90;;;10.12;64.73;100904.88;5025784;28;20049;-84
2023/10/17 10:43:19;;;;;;;9.75;2.92;;;10.30;99.90;;;10.15;64.51;100900.00;5024397;28;20046;-84
2023/10/17 10:45:50;;;;;;;8.85;3.30;;;10.40;99.90;;;10.16;63.90;100884.81;5028997;28;20049;-85
2023/10/17 10:48:21;;;;;;;7.22;3.42;;;10.40;99.90;;;10.22;64.48;100887.50;4992539;28;20057;-84
2023/10/17 10:50:52;;;;;;;7.10;3.30;;;10.40;99.90;;;10.22;64.26;100892.00;5025641;28;20417;-84
2023/10/17 10:53:24;;;;;;;7.25;2.95;;;10.40;99.90;;;10.24;64.20;100893.47;5005179;28;20045;-84
2023/10/17 10:55:59;;;;;;;7.38;3.10;;;10.40;99.90;;;10.27;64.16;100889.59;5033931;28;20042;-84
2023/10/17 10:58:28;;;;;;;7.30;3.10;;;10.50;99.90;;;10.29;64.06;100882.22;5042828;28;20133;-83
2023/10/17 11:00:59;;;;;;;5.95;3.00;;;10.50;99.90;;;10.31;64.04;100877.53;5045518;28;20049;-84
2023/10/17 11:03:27;;;;;;;6.30;2.83;;;10.50;99.90;;;10.34;63.64;100878.97;5030473;28;20045;-83
2023/10/17 11:05:57;;;;;;;5.07;2.60;;;10.60;99.90;;;10.38;63.25;100873.03;5035639;28;20148;-83
2023/10/17 11:08:35;;;;;;;5.25;2.60;;;10.60;99.90;;;10.38;62.76;100873.03;5032946;28;20076;-83
2023/10/17 11:11:04;;;;;;;6.95;2.92;;;10.60;99.90;;;10.41;62.71;100869.16;5025671;28;20080;-84
2023/10/17 11:13:36;;;;;;;10.55;3.53;;;10.60;99.90;;;10.46;63.12;100866.72;5008555;28;20078;-83
2023/10/17 11:16:06;;;;;;;5.82;3.03;;;10.70;99.90;;;10.49;62.88;100853.81;5022566;28;20402;-83
2023/10/17 11:18:34;;;;;;;6.47;3.30;;;10.70;99.90;;;10.53;63.41;100865.69;5008059;28;20386;-83
2023/10/17 11:21:05;;;;;;;6.38;3.75;;;10.80;99.90;;;10.57;64.11;100853.59;5026256;28;20042;-83
2023/10/17 11:23:37;;;;;;;7.00;3.70;;;10.80;99.90;;;10.58;63.86;100851.75;5020130;28;20501;-84
2023/10/17 11:26:09;;;;;;;9.73;3.70;;;10.90;99.90;;;10.62;63.29;100854.84;5039430;28;20544;-83
2023/10/17 11:28:41;;;;;;;7.43;3.65;;;10.90;99.90;;;10.63;63.38;100854.63;5027266;28;20051;-83
2023/10/17 11:31:13;;;;;;;7.43;3.70;;;10.90;99.90;;;10.63;63.05;100841.28;5027595;28;20045;-83
2023/10/17 11:33:47;;;;;;;10.60;4.40;;;10.90;99.90;;;10.65;63.29;100833.94;5045623;28;20051;-83
2023/10/17 11:36:19;;;;;;;8.93;4.05;;;10.90;99.90;;;10.70;63.15;100828.00;5023172;28;20057;-83
2023/10/17 11:38:55;;;;;;;8.90;4.00;;;11.00;99.90;;;10.75;62.05;100828.19;4992423;28;20053;-83
2023/10/17 11:41:28;;;;;;;8.23;4.20;;;11.00;99.90;;;10.75;62.59;100815.69;5034924;28;20103;-83
2023/10/17 11:43:56;;;;;;;9.45;4.15;;;11.00;99.90;;;10.77;62.83;100824.28;5026707;28;20073;-83
2023/10/17 11:46:30;;;;;;;6.75;3.35;;;11.00;99.90;;;10.79;62.84;100824.09;5045762;28;20042;-83
2023/10/17 11:49:20;;;;;;;6.60;3.58;;;11.10;99.90;;;10.79;63.36;100819.59;4995007;28;20058;-83
2023/10/17 11:51:51;;;;;;;7.88;4.30;;;11.10;99.90;;;10.81;63.71;100830.03;5027771;28;20042;-83
2023/10/17 11:54:22;;;;;;;7.95;4.05;;;11.10;99.90;;;10.86;62.48;100824.91;5026359;28;20095;-83
2023/10/17 11:56:50;;;;;;;9.18;4.18;;;11.10;99.90;;;10.91;62.66;100825.13;5006248;28;20046;-83
2023/10/17 11:59:19;;;;;;;11.40;4.70;;;11.30;99.90;;;10.90;62.88;100822.66;5024553;28;20068;-83
2023/10/17 12:01:46;;;;;;;10.95;4.90;;;11.20;99.90;;;10.95;63.33;100821.03;5019577;28;20113;-84
2023/10/17 12:04:16;;;;;;;9.82;5.50;;;11.20;99.90;;;10.99;62.88;100818.78;5034396;28;20049;-84
2023/10/17 12:06:47;;;;;;;8.52;5.40;;;11.30;99.90;;;10.98;63.10;100819.78;5025547;28;20543;-84
2023/10/17 12:09:25;;;;;;;8.98;5.28;;;11.30;99.90;;;10.98;62.75;100809.94;5008388;28;20051;-83
2023/10/17 12:11:55;;;;;;;11.40;4.93;;;11.30;99.90;;;11.02;62.76;100807.69;5025038;28;20072;-84
2023/10/17 12:14:23;;;;;;;10.15;5.03;;;11.30;99.90;;;10.99;61.77;100803.59;5024962;28;20052;-84
2023/10/17 12:16:53;;;;;;;11.52;4.85;;;11.30;99.90;;;11.01;62.05;100804.19;5012799;28;20124;-84